createdAt,value
2023-01-19T00:00:59.970Z,61.60
2023-01-19T00:03:29.282Z,61.00
2023-01-19T00:05:56.332Z,60.91
2023-01-19T00:08:23.618Z,61.13
2023-01-19T00:10:53.834Z,60.86
2023-01-19T00:13:21.344Z,61.70
2023-01-19T00:15:48.271Z,61.22
2023-01-19T00:18:15.578Z,60.90
2023-01-19T00:20:44.893Z,60.98
2023-01-19T00:23:12.673Z,61.59
2023-01-19T00:25:42.668Z,61.27
2023-01-19T00:28:16.982Z,61.17
2023-01-19T00:30:45.258Z,61.66
2023-01-19T00:33:15.980Z,61.36
2023-01-19T00:35:43.653Z,61.49
2023-01-19T00:38:12.605Z,61.64
2023-01-19T00:40:39.728Z,61.83
2023-01-19T00:43:07.047Z,61.93
2023-01-19T00:45:34.779Z,62.38
2023-01-19T00:48:02.095Z,61.99
2023-01-19T00:50:31.548Z,62.47
2023-01-19T00:53:03.605Z,62.21
2023-01-19T00:55:33.624Z,61.91
2023-01-19T00:58:01.166Z,61.91
2023-01-19T01:00:28.263Z,61.67
2023-01-19T01:02:55.817Z,61.84
2023-01-19T01:05:23.194Z,62.07
2023-01-19T01:07:50.827Z,62.11
2023-01-19T01:10:23.738Z,61.98
2023-01-19T01:12:56.015Z,62.19
2023-01-19T01:15:26.624Z,61.72
2023-01-19T01:17:54.708Z,62.17
2023-01-19T01:20:27.949Z,61.60
2023-01-19T01:22:57.388Z,62.29
2023-01-19T01:25:27.350Z,61.96
2023-01-19T01:27:55.683Z,61.41
2023-01-19T01:30:23.466Z,61.63
2023-01-19T01:32:50.984Z,61.91
2023-01-19T01:35:18.244Z,60.99
2023-01-19T01:37:45.432Z,61.18
2023-01-19T01:40:16.205Z,60.61
2023-01-19T01:42:44.147Z,60.39
2023-01-19T01:45:40.726Z,61.04
2023-01-19T01:48:22.440Z,60.73
2023-01-19T01:51:17.494Z,60.66
2023-01-19T01:53:48.495Z,61.04
2023-01-19T01:56:22.051Z,60.92
2023-01-19T01:58:50.292Z,60.75
2023-01-19T02:01:35.622Z,60.41
2023-01-19T02:04:03.135Z,60.31
2023-01-19T02:06:30.383Z,59.81
2023-01-19T02:09:29.693Z,60.61
2023-01-19T02:12:16.449Z,60.73
2023-01-19T02:14:43.643Z,60.60
2023-01-19T02:17:10.813Z,61.42
2023-01-19T02:19:43.609Z,60.96
2023-01-19T02:22:31.949Z,61.32
2023-01-19T02:24:59.429Z,61.85
2023-01-19T02:27:26.442Z,61.92
2023-01-19T02:29:54.248Z,62.85
2023-01-19T02:32:21.294Z,62.91
2023-01-19T02:34:48.539Z,63.39
2023-01-19T02:37:19.300Z,63.24
2023-01-19T02:39:55.755Z,63.48
2023-01-19T02:42:29.772Z,63.33
2023-01-19T02:44:58.352Z,63.59
2023-01-19T02:47:25.592Z,63.42
2023-01-19T02:50:00.869Z,63.69
2023-01-19T02:52:28.500Z,63.41
2023-01-19T02:55:27.038Z,63.63
2023-01-19T02:58:29.219Z,63.65
2023-01-19T03:01:02.696Z,63.13
2023-01-19T03:04:09.601Z,63.53
2023-01-19T03:06:50.252Z,63.50
2023-01-19T03:09:23.141Z,63.38
2023-01-19T03:12:25.539Z,63.03
2023-01-19T03:15:01.785Z,63.38
2023-01-19T03:17:32.694Z,63.65
2023-01-19T03:20:02.136Z,63.88
2023-01-19T03:22:30.051Z,63.64
2023-01-19T03:25:02.163Z,63.64
2023-01-19T03:27:40.694Z,63.73
2023-01-19T03:30:19.299Z,63.96
2023-01-19T03:33:00.212Z,64.08
2023-01-19T03:35:34.513Z,63.92
2023-01-19T03:38:10.096Z,63.87
2023-01-19T03:40:37.739Z,64.01
2023-01-19T03:43:06.530Z,64.19
2023-01-19T03:45:38.603Z,64.12
2023-01-19T03:48:07.497Z,64.23
2023-01-19T03:50:34.386Z,64.66
2023-01-19T03:53:07.584Z,64.09
2023-01-19T03:55:37.613Z,64.25
2023-01-19T03:58:05.214Z,64.41
2023-01-19T04:00:33.051Z,63.99
2023-01-19T04:03:00.758Z,64.21
2023-01-19T04:05:28.028Z,64.10
2023-01-19T04:07:55.847Z,63.94
2023-01-19T04:10:23.001Z,63.93
2023-01-19T04:12:50.249Z,63.68
2023-01-19T04:15:18.609Z,63.59
2023-01-19T04:17:45.808Z,63.33
2023-01-19T04:20:12.964Z,62.67
2023-01-19T04:22:40.429Z,63.30
2023-01-19T04:25:08.380Z,61.96
2023-01-19T04:27:37.257Z,61.70
2023-01-19T04:30:05.337Z,62.32
2023-01-19T04:32:32.950Z,61.71
2023-01-19T04:35:00.435Z,61.95
2023-01-19T04:37:28.072Z,61.81
2023-01-19T04:39:55.263Z,61.13
2023-01-19T04:42:23.100Z,60.67
2023-01-19T04:44:49.983Z,60.30
2023-01-19T04:47:17.126Z,60.17
2023-01-19T04:49:44.246Z,59.94
2023-01-19T04:52:11.596Z,59.84
2023-01-19T04:54:38.466Z,59.91
2023-01-19T04:57:05.672Z,60.49
2023-01-19T04:59:32.541Z,60.62
2023-01-19T05:01:59.758Z,60.27
2023-01-19T05:04:26.881Z,61.24
2023-01-19T05:06:54.377Z,60.84
2023-01-19T05:09:21.403Z,60.75
2023-01-19T05:11:48.581Z,60.73
2023-01-19T05:14:15.577Z,61.58
2023-01-19T05:16:42.703Z,61.18
2023-01-19T05:19:09.724Z,61.06
2023-01-19T05:21:36.903Z,61.29
2023-01-19T05:24:04.248Z,61.54
2023-01-19T05:26:31.395Z,61.25
2023-01-19T05:28:58.353Z,61.47
2023-01-19T05:31:25.677Z,62.09
2023-01-19T05:33:52.680Z,61.75
2023-01-19T05:36:19.791Z,62.43
2023-01-19T05:38:46.703Z,61.13
2023-01-19T05:41:14.411Z,61.34
2023-01-19T05:43:41.279Z,61.79
2023-01-19T05:46:08.463Z,61.95
2023-01-19T05:48:35.402Z,61.83
2023-01-19T05:51:02.630Z,61.51
2023-01-19T05:53:29.749Z,61.30
2023-01-19T05:56:02.561Z,61.23
2023-01-19T05:58:29.675Z,61.29
2023-01-19T06:00:57.170Z,61.60
2023-01-19T06:03:24.355Z,61.39
2023-01-19T06:05:51.546Z,61.73
2023-01-19T06:08:19.831Z,61.69
2023-01-19T06:10:48.292Z,61.67
2023-01-19T06:13:15.398Z,61.31
2023-01-19T06:15:43.802Z,61.56
2023-01-19T06:18:12.615Z,61.43
2023-01-19T06:20:39.758Z,61.25
2023-01-19T06:23:06.756Z,61.50
2023-01-19T06:25:34.068Z,60.95
2023-01-19T06:28:01.260Z,61.11
2023-01-19T06:30:29.113Z,60.96
2023-01-19T06:32:56.070Z,60.12
2023-01-19T06:35:23.247Z,61.16
2023-01-19T06:37:50.218Z,60.96
2023-01-19T06:40:17.799Z,61.21
2023-01-19T06:42:44.689Z,60.67
2023-01-19T06:45:12.011Z,59.81
2023-01-19T06:47:39.132Z,60.59
2023-01-19T06:50:07.105Z,60.68
2023-01-19T06:52:34.903Z,61.27
2023-01-19T06:55:02.322Z,61.00
2023-01-19T06:57:29.184Z,61.44
2023-01-19T06:59:58.667Z,60.96
2023-01-19T07:02:28.544Z,60.83
2023-01-19T07:04:56.817Z,61.12
2023-01-19T07:07:23.805Z,60.95
2023-01-19T07:09:53.858Z,61.10
2023-01-19T07:12:22.875Z,60.49
2023-01-19T07:14:50.278Z,60.48
2023-01-19T07:17:17.388Z,60.48
2023-01-19T07:19:44.672Z,60.18
2023-01-19T07:22:11.615Z,60.40
2023-01-19T07:24:38.918Z,60.76
2023-01-19T07:27:05.921Z,60.64
2023-01-19T07:29:33.130Z,59.99
2023-01-19T07:32:00.143Z,60.83
2023-01-19T07:34:27.377Z,60.07
2023-01-19T07:36:56.225Z,60.50
2023-01-19T07:39:23.507Z,60.17
2023-01-19T07:41:50.485Z,59.99
2023-01-19T07:44:17.691Z,60.34
2023-01-19T07:46:44.640Z,60.55
2023-01-19T07:49:12.688Z,60.76
2023-01-19T07:51:39.571Z,60.76
2023-01-19T07:54:08.539Z,61.30
2023-01-19T07:56:35.712Z,61.28
2023-01-19T07:59:03.078Z,61.62
2023-01-19T08:01:31.567Z,61.67
2023-01-19T08:03:58.939Z,61.47
2023-01-19T08:06:35.080Z,61.71
2023-01-19T08:09:05.563Z,61.88
2023-01-19T08:11:33.534Z,62.12
2023-01-19T08:14:00.964Z,62.22
2023-01-19T08:16:28.083Z,62.07
2023-01-19T08:18:55.448Z,62.32
2023-01-19T08:21:22.496Z,62.22
2023-01-19T08:23:54.694Z,62.58
2023-01-19T08:26:29.873Z,61.93
2023-01-19T08:29:00.927Z,62.45
2023-01-19T08:31:28.523Z,62.37
2023-01-19T08:33:55.937Z,62.58
2023-01-19T08:36:23.884Z,61.96
2023-01-19T08:38:51.969Z,61.61
2023-01-19T08:41:19.029Z,61.66
2023-01-19T08:43:46.769Z,60.92
2023-01-19T08:46:17.499Z,61.03
2023-01-19T08:48:50.970Z,60.79
2023-01-19T08:51:18.776Z,60.56
2023-01-19T08:53:46.112Z,60.39
2023-01-19T08:56:14.362Z,59.78
2023-01-19T08:58:44.209Z,60.18
2023-01-19T09:01:17.082Z,60.08
2023-01-19T09:03:44.592Z,59.80
2023-01-19T09:06:14.664Z,59.75
2023-01-19T09:08:41.987Z,59.58
2023-01-19T09:11:15.251Z,59.73
2023-01-19T09:13:42.687Z,59.35
2023-01-19T09:16:13.428Z,58.98
2023-01-19T09:18:40.850Z,58.97
2023-01-19T09:21:09.111Z,58.64
2023-01-19T09:23:36.439Z,58.59
2023-01-19T09:26:05.810Z,58.58
2023-01-19T09:28:33.635Z,58.97
2023-01-19T09:31:08.267Z,58.54
2023-01-19T09:33:35.884Z,57.37
2023-01-19T09:36:02.861Z,58.17
2023-01-19T09:38:34.065Z,57.95
2023-01-19T09:41:01.764Z,57.86
2023-01-19T09:43:41.401Z,57.88
2023-01-19T09:46:42.142Z,56.90
2023-01-19T09:49:23.389Z,56.73
2023-01-19T09:51:51.688Z,57.12
2023-01-19T09:54:29.820Z,56.67
2023-01-19T09:56:56.891Z,56.92
2023-01-19T09:59:28.794Z,56.81
2023-01-19T10:02:25.123Z,57.06
2023-01-19T10:05:22.703Z,57.14
2023-01-19T10:08:16.548Z,56.69
2023-01-19T10:10:52.878Z,56.39
2023-01-19T10:13:48.778Z,56.59
2023-01-19T10:16:33.987Z,56.21
2023-01-19T10:19:29.500Z,55.36
2023-01-19T10:22:00.557Z,55.92
2023-01-19T10:24:40.297Z,55.07
2023-01-19T10:27:18.351Z,56.03
2023-01-19T10:29:46.813Z,55.34
2023-01-19T10:32:25.759Z,55.38
2023-01-19T10:34:54.836Z,55.73
2023-01-19T10:37:28.857Z,55.50
2023-01-19T10:40:20.716Z,55.78
2023-01-19T10:42:48.103Z,55.16
2023-01-19T10:45:18.642Z,55.61
2023-01-19T10:47:48.457Z,54.65
2023-01-19T10:50:37.208Z,55.03
2023-01-19T10:53:06.726Z,54.70
2023-01-19T10:55:39.971Z,54.87
2023-01-19T10:58:29.508Z,54.69
2023-01-19T11:01:15.236Z,54.51
2023-01-19T11:03:42.719Z,54.91
2023-01-19T11:06:15.758Z,55.58
2023-01-19T11:08:45.973Z,55.14
2023-01-19T11:11:13.936Z,55.38
2023-01-19T11:13:43.942Z,55.61
2023-01-19T11:16:30.888Z,54.69
2023-01-19T11:19:02.074Z,54.55
2023-01-19T11:21:32.149Z,54.85
2023-01-19T11:24:05.430Z,54.85
2023-01-19T11:26:44.286Z,54.97
2023-01-19T11:29:25.664Z,55.29
2023-01-19T11:31:54.895Z,54.58
2023-01-19T11:34:35.624Z,54.78
2023-01-19T11:37:18.098Z,54.85
2023-01-19T11:39:55.925Z,54.87
2023-01-19T11:42:24.565Z,54.02
2023-01-19T11:45:14.810Z,54.32
2023-01-19T11:47:45.989Z,53.48
2023-01-19T11:50:29.968Z,54.53
2023-01-19T11:53:24.500Z,53.84
2023-01-19T11:56:06.888Z,53.70
2023-01-19T11:58:40.195Z,53.49
2023-01-19T12:01:25.957Z,53.48
2023-01-19T12:04:17.165Z,53.66
2023-01-19T12:06:53.006Z,53.71
2023-01-19T12:09:35.163Z,53.51
2023-01-19T12:12:17.222Z,53.60
2023-01-19T12:14:58.279Z,53.54
2023-01-19T12:17:39.549Z,53.71
2023-01-19T12:20:37.390Z,53.01
2023-01-19T12:23:31.276Z,52.89
2023-01-19T12:26:33.381Z,52.77
2023-01-19T12:29:14.766Z,52.61
2023-01-19T12:31:43.112Z,53.00
2023-01-19T12:34:26.171Z,53.18
2023-01-19T12:37:00.898Z,53.50
2023-01-19T12:39:28.221Z,53.29
2023-01-19T12:42:19.882Z,53.13
2023-01-19T12:44:50.623Z,53.29
2023-01-19T12:47:21.143Z,53.59
2023-01-19T12:50:05.925Z,53.47
2023-01-19T12:52:36.546Z,53.55
2023-01-19T12:55:18.905Z,53.77
2023-01-19T12:58:00.553Z,53.77
2023-01-19T13:00:41.017Z,54.21
2023-01-19T13:03:17.281Z,54.42
2023-01-19T13:05:44.455Z,54.52
2023-01-19T13:08:14.235Z,54.52
2023-01-19T13:11:02.768Z,54.43
2023-01-19T13:13:50.202Z,54.71
2023-01-19T13:16:20.568Z,54.06
2023-01-19T13:19:01.773Z,53.93
2023-01-19T13:21:39.825Z,54.39
2023-01-19T13:24:22.631Z,53.69
2023-01-19T13:26:50.010Z,53.55
2023-01-19T13:29:41.244Z,54.27
2023-01-19T13:32:21.198Z,53.80
2023-01-19T13:34:59.198Z,54.44
2023-01-19T13:37:37.308Z,54.38
2023-01-19T13:40:05.617Z,54.72
2023-01-19T13:42:37.542Z,54.75
2023-01-19T13:45:26.790Z,53.82
2023-01-19T13:47:58.513Z,54.67
2023-01-19T13:50:35.958Z,54.29
2023-01-19T13:53:04.774Z,54.91
2023-01-19T13:55:32.229Z,54.76
2023-01-19T13:57:59.689Z,54.63
2023-01-19T14:00:31.080Z,54.46
2023-01-19T14:03:18.546Z,55.14
2023-01-19T14:05:45.694Z,54.66
2023-01-19T14:08:18.124Z,54.82
2023-01-19T14:10:46.113Z,54.67
2023-01-19T14:13:29.974Z,54.30
2023-01-19T14:16:04.303Z,54.47
2023-01-19T14:18:34.817Z,54.63
2023-01-19T14:21:11.359Z,54.79
2023-01-19T14:23:38.452Z,55.25
2023-01-19T14:26:06.335Z,55.02
2023-01-19T14:28:39.301Z,54.89
2023-01-19T14:31:28.171Z,55.11
2023-01-19T14:33:58.698Z,54.94
2023-01-19T14:36:34.668Z,55.17
2023-01-19T14:39:03.475Z,54.96
2023-01-19T14:41:49.219Z,55.26
2023-01-19T14:44:24.765Z,54.77
2023-01-19T14:46:51.821Z,55.29
2023-01-19T14:49:32.768Z,54.94
2023-01-19T14:52:05.185Z,55.35
2023-01-19T14:54:46.945Z,55.24
2023-01-19T14:57:15.370Z,55.00
2023-01-19T14:59:46.952Z,55.30
2023-01-19T15:02:14.135Z,55.21
2023-01-19T15:04:41.340Z,55.54
2023-01-19T15:07:18.755Z,55.05
2023-01-19T15:09:48.285Z,55.27
2023-01-19T15:12:18.791Z,55.35
2023-01-19T15:14:46.677Z,55.71
2023-01-19T15:17:30.012Z,55.65
2023-01-19T15:19:57.498Z,55.51
2023-01-19T15:22:28.419Z,55.39
2023-01-19T15:24:59.949Z,55.12
2023-01-19T15:27:27.390Z,55.89
2023-01-19T15:29:54.672Z,55.51
2023-01-19T15:32:21.705Z,55.06
2023-01-19T15:34:49.106Z,55.35
2023-01-19T15:37:16.129Z,55.32
2023-01-19T15:39:43.332Z,55.37
2023-01-19T15:42:15.814Z,55.46
2023-01-19T15:44:43.040Z,55.14
2023-01-19T15:47:10.863Z,55.39
2023-01-19T15:49:38.208Z,55.39
2023-01-19T15:52:05.267Z,55.12
2023-01-19T15:54:32.581Z,54.91
2023-01-19T15:56:59.703Z,55.16
2023-01-19T15:59:27.004Z,54.86
2023-01-19T16:01:54.085Z,55.20
2023-01-19T16:04:21.425Z,54.80
2023-01-19T16:06:50.092Z,55.06
2023-01-19T16:09:20.056Z,55.29
2023-01-19T16:11:47.221Z,55.20
2023-01-19T16:14:16.610Z,54.88
2023-01-19T16:16:46.287Z,54.99
2023-01-19T16:19:16.048Z,54.94
2023-01-19T16:21:44.099Z,54.77
2023-01-19T16:24:11.385Z,55.07
2023-01-19T16:26:38.593Z,54.88
2023-01-19T16:29:09.847Z,55.04
2023-01-19T16:31:39.501Z,55.50
2023-01-19T16:34:07.445Z,55.43
2023-01-19T16:36:38.142Z,55.34
2023-01-19T16:39:10.906Z,55.40
2023-01-19T16:41:38.720Z,55.21
2023-01-19T16:44:06.953Z,55.10
2023-01-19T16:46:37.561Z,55.29
2023-01-19T16:49:14.883Z,55.02
2023-01-19T16:51:43.011Z,55.24
2023-01-19T16:54:16.160Z,55.40
2023-01-19T16:56:43.510Z,55.17
2023-01-19T16:59:15.701Z,55.15
2023-01-19T17:01:45.132Z,55.67
2023-01-19T17:04:14.310Z,55.26
2023-01-19T17:06:41.521Z,55.68
2023-01-19T17:09:10.287Z,55.45
2023-01-19T17:11:37.508Z,55.80
2023-01-19T17:14:09.265Z,55.67
2023-01-19T17:16:36.830Z,55.14
2023-01-19T17:19:06.997Z,55.44
2023-01-19T17:21:35.401Z,55.17
2023-01-19T17:24:02.630Z,55.44
2023-01-19T17:26:31.274Z,55.26
2023-01-19T17:29:07.571Z,55.73
2023-01-19T17:31:36.129Z,55.71
2023-01-19T17:34:04.237Z,55.50
2023-01-19T17:36:33.119Z,55.59
2023-01-19T17:39:07.856Z,55.62
2023-01-19T17:41:36.243Z,55.90
2023-01-19T17:44:05.926Z,55.60
2023-01-19T17:46:36.834Z,55.86
2023-01-19T17:49:07.489Z,55.83
2023-01-19T17:51:35.556Z,55.73
2023-01-19T17:54:04.316Z,55.92
2023-01-19T17:56:36.772Z,56.18
2023-01-19T17:59:08.024Z,55.84
2023-01-19T18:01:39.946Z,55.81
2023-01-19T18:04:08.947Z,55.89
2023-01-19T18:06:37.634Z,55.42
2023-01-19T18:09:07.487Z,55.57
2023-01-19T18:11:36.236Z,55.37
2023-01-19T18:14:05.520Z,54.84
2023-01-19T18:16:32.697Z,54.65
2023-01-19T18:19:00.102Z,54.27
2023-01-19T18:21:28.877Z,53.87
2023-01-19T18:24:03.750Z,54.23
2023-01-19T18:26:33.812Z,53.96
2023-01-19T18:29:01.521Z,53.75
2023-01-19T18:31:28.629Z,53.51
2023-01-19T18:33:56.100Z,53.41
2023-01-19T18:36:23.521Z,53.49
2023-01-19T18:38:51.047Z,53.60
2023-01-19T18:41:22.255Z,53.61
2023-01-19T18:43:50.421Z,53.78
2023-01-19T18:46:17.866Z,53.96
2023-01-19T18:48:45.151Z,53.50
2023-01-19T18:51:15.333Z,53.91
2023-01-19T18:53:44.990Z,53.82
2023-01-19T18:56:15.573Z,54.04
2023-01-19T18:58:44.344Z,53.97
2023-01-19T19:01:33.001Z,54.16
2023-01-19T19:04:01.206Z,53.98
2023-01-19T19:06:28.447Z,54.54
2023-01-19T19:08:59.266Z,53.75
2023-01-19T19:11:27.907Z,54.26
2023-01-19T19:14:03.617Z,53.98
2023-01-19T19:16:32.760Z,54.20
2023-01-19T19:19:02.036Z,53.85
2023-01-19T19:21:28.940Z,53.66
2023-01-19T19:23:58.253Z,53.60
2023-01-19T19:26:28.315Z,54.95
2023-01-19T19:28:56.376Z,54.54
2023-01-19T19:31:26.165Z,54.80
2023-01-19T19:33:56.117Z,54.33
2023-01-19T19:36:25.374Z,54.77
2023-01-19T19:38:53.149Z,54.50
2023-01-19T19:41:24.267Z,54.57
2023-01-19T19:43:51.436Z,54.73
2023-01-19T19:46:20.939Z,54.46
2023-01-19T19:48:49.074Z,54.37
2023-01-19T19:51:27.533Z,54.84
2023-01-19T19:53:58.976Z,55.16
2023-01-19T19:56:29.224Z,54.65
2023-01-19T19:58:59.463Z,54.81
2023-01-19T20:01:32.541Z,54.81
2023-01-19T20:04:10.941Z,54.88
2023-01-19T20:06:44.899Z,54.89
2023-01-19T20:09:14.126Z,55.26
2023-01-19T20:11:46.823Z,55.04
2023-01-19T20:14:16.242Z,55.42
2023-01-19T20:16:43.595Z,55.11
2023-01-19T20:19:11.144Z,55.56
2023-01-19T20:21:44.745Z,55.38
2023-01-19T20:24:17.688Z,55.63
2023-01-19T20:26:50.513Z,56.25
2023-01-19T20:29:19.245Z,55.79
2023-01-19T20:31:52.271Z,56.02
2023-01-19T20:34:24.888Z,55.65
2023-01-19T20:36:54.046Z,55.39
2023-01-19T20:39:23.943Z,56.04
2023-01-19T20:41:52.622Z,55.44
2023-01-19T20:44:23.893Z,55.44
2023-01-19T20:46:51.764Z,55.58
2023-01-19T20:49:19.255Z,55.64
2023-01-19T20:51:47.094Z,55.54
2023-01-19T20:54:18.846Z,55.85
2023-01-19T20:56:46.035Z,56.19
2023-01-19T20:59:13.876Z,56.25
2023-01-19T21:01:42.044Z,55.71
2023-01-19T21:04:10.152Z,56.26
2023-01-19T21:06:39.466Z,55.87
2023-01-19T21:09:10.151Z,56.36
2023-01-19T21:11:39.165Z,56.07
2023-01-19T21:14:07.062Z,55.74
2023-01-19T21:16:35.804Z,56.26
2023-01-19T21:19:04.927Z,55.73
2023-01-19T21:21:32.315Z,55.70
2023-01-19T21:24:04.057Z,55.91
2023-01-19T21:26:33.448Z,55.85
2023-01-19T21:29:02.729Z,55.84
2023-01-19T21:31:30.909Z,55.50
2023-01-19T21:33:58.786Z,55.85
2023-01-19T21:36:26.522Z,55.87
2023-01-19T21:39:00.545Z,56.12
2023-01-19T21:41:30.091Z,55.74
2023-01-19T21:43:58.657Z,56.40
2023-01-19T21:46:29.119Z,56.15
2023-01-19T21:49:03.709Z,56.73
2023-01-19T21:51:35.926Z,56.52
2023-01-19T21:54:06.177Z,56.07
2023-01-19T21:56:34.139Z,55.94
2023-01-19T21:59:04.343Z,56.28
2023-01-19T22:01:33.660Z,56.63
2023-01-19T22:04:01.082Z,56.51
2023-01-19T22:06:29.005Z,56.35
2023-01-19T22:08:57.975Z,56.68
2023-01-19T22:11:25.491Z,56.83
2023-01-19T22:13:53.710Z,56.29
2023-01-19T22:16:23.202Z,56.56
2023-01-19T22:18:59.426Z,56.54
2023-01-19T22:21:35.445Z,56.65
2023-01-19T22:24:05.415Z,56.74
2023-01-19T22:26:34.389Z,56.41
2023-01-19T22:29:03.134Z,56.97
2023-01-19T22:31:31.264Z,56.64
2023-01-19T22:33:58.967Z,56.71
2023-01-19T22:36:33.862Z,57.37
2023-01-19T22:39:09.222Z,56.71
2023-01-19T22:41:43.039Z,57.23
2023-01-19T22:44:18.087Z,56.78
2023-01-19T22:46:45.030Z,57.04
2023-01-19T22:49:17.171Z,57.14
2023-01-19T22:51:45.615Z,57.38
2023-01-19T22:54:14.108Z,57.39
2023-01-19T22:56:42.035Z,56.95
2023-01-19T22:59:09.651Z,56.95
2023-01-19T23:01:43.463Z,57.29
2023-01-19T23:04:15.052Z,57.38
2023-01-19T23:06:42.800Z,57.09
2023-01-19T23:09:14.644Z,57.17
2023-01-19T23:11:45.089Z,57.75
2023-01-19T23:14:19.553Z,57.58
2023-01-19T23:16:47.202Z,57.75
2023-01-19T23:19:17.239Z,58.09
2023-01-19T23:21:45.581Z,57.60
2023-01-19T23:24:12.871Z,57.90
2023-01-19T23:26:39.947Z,57.87
2023-01-19T23:29:13.879Z,58.31
2023-01-19T23:31:46.165Z,57.86
2023-01-19T23:34:14.770Z,57.81
2023-01-19T23:36:43.723Z,57.57
2023-01-19T23:39:22.256Z,57.53
2023-01-19T23:41:49.965Z,57.58
2023-01-19T23:44:18.324Z,57.83
2023-01-19T23:46:46.533Z,57.51
2023-01-19T23:49:14.386Z,57.51
2023-01-19T23:51:42.151Z,57.56
2023-01-19T23:54:09.450Z,57.64
2023-01-19T23:56:38.793Z,57.72
2023-01-19T23:59:10.845Z,57.92
